Terminal Aerodrome Forecast
Issued by NWS Atlanta, GA

Home | Current Version | Previous Version | Text Only | Print | Product List | Glossary On
Versions: 1 2 3 4 5 6 7 8 9 10 11 12 13 14 15 16 17 18 19 20 21 22 23 24
000
FTUS42 KFFC 171400 AAA
TAFCSG
TAF AMD
KCSG 171400Z 1714/1812 10010G20KT P6SM BKN040 BKN250
     FM172000 10009G16KT P6SM BKN040
     FM180200 09009KT P6SM BKN035
     FM181100 08010KT P6SM -RA OVC015=

USA.gov is the U.S. government's official web portal to all federal, state and local government web resources and services.